sensor_id;sensor_type;location;lat;lon;timestamp;temperature;humidity
3784;DHT22;1907;49.238;9.262;2022-10-29T00:00:21;12.10;99.90
3784;DHT22;1907;49.238;9.262;2022-10-29T00:02:46;12.10;99.90
3784;DHT22;1907;49.238;9.262;2022-10-29T00:05:12;12.00;99.90
3784;DHT22;1907;49.238;9.262;2022-10-29T00:07:38;11.90;99.90
3784;DHT22;1907;49.238;9.262;2022-10-29T00:10:04;12.00;99.90
3784;DHT22;1907;49.238;9.262;2022-10-29T00:12:30;12.00;99.90
3784;DHT22;1907;49.238;9.262;2022-10-29T00:14:56;12.00;99.90
3784;DHT22;1907;49.238;9.262;2022-10-29T00:17:21;12.00;99.90
3784;DHT22;1907;49.238;9.262;2022-10-29T00:19:47;12.00;99.90
3784;DHT22;1907;49.238;9.262;2022-10-29T00:22:13;11.90;99.90
3784;DHT22;1907;49.238;9.262;2022-10-29T00:24:39;11.90;99.90
3784;DHT22;1907;49.238;9.262;2022-10-29T00:27:04;11.90;99.90
3784;DHT22;1907;49.238;9.262;2022-10-29T00:29:30;11.90;99.90
3784;DHT22;1907;49.238;9.262;2022-10-29T00:31:56;11.90;99.90
3784;DHT22;1907;49.238;9.262;2022-10-29T00:34:21;12.00;99.90
3784;DHT22;1907;49.238;9.262;2022-10-29T00:36:47;12.10;99.90
3784;DHT22;1907;49.238;9.262;2022-10-29T00:39:14;12.10;99.90
3784;DHT22;1907;49.238;9.262;2022-10-29T00:41:40;12.10;99.90
3784;DHT22;1907;49.238;9.262;2022-10-29T00:46:49;12.00;99.90
3784;DHT22;1907;49.238;9.262;2022-10-29T00:49:16;12.00;99.90
3784;DHT22;1907;49.238;9.262;2022-10-29T00:51:42;11.90;99.90
3784;DHT22;1907;49.238;9.262;2022-10-29T00:54:09;11.80;99.90
3784;DHT22;1907;49.238;9.262;2022-10-29T00:56:54;11.80;99.90
3784;DHT22;1907;49.238;9.262;2022-10-29T00:59:23;11.70;99.90
3784;DHT22;1907;49.238;9.262;2022-10-29T01:01:49;11.70;99.90
3784;DHT22;1907;49.238;9.262;2022-10-29T01:04:16;11.60;99.90
3784;DHT22;1907;49.238;9.262;2022-10-29T01:06:42;11.50;99.90
3784;DHT22;1907;49.238;9.262;2022-10-29T01:09:08;11.50;99.90
3784;DHT22;1907;49.238;9.262;2022-10-29T01:11:55;11.40;99.90
3784;DHT22;1907;49.238;9.262;2022-10-29T01:17:25;11.40;99.90
3784;DHT22;1907;49.238;9.262;2022-10-29T01:28:41;11.40;99.90
3784;DHT22;1907;49.238;9.262;2022-10-29T01:31:27;11.40;99.90
3784;DHT22;1907;49.238;9.262;2022-10-29T01:42:15;11.30;99.90
3784;DHT22;1907;49.238;9.262;2022-10-29T01:44:52;11.40;99.90
3784;DHT22;1907;49.238;9.262;2022-10-29T01:47:21;11.40;99.90
3784;DHT22;1907;49.238;9.262;2022-10-29T01:49:59;11.40;99.90
3784;DHT22;1907;49.238;9.262;2022-10-29T01:52:27;11.40;99.90
3784;DHT22;1907;49.238;9.262;2022-10-29T01:54:55;11.30;99.90
3784;DHT22;1907;49.238;9.262;2022-10-29T01:59:49;11.20;99.90
3784;DHT22;1907;49.238;9.262;2022-10-29T02:08:03;11.20;99.90
3784;DHT22;1907;49.238;9.262;2022-10-29T02:10:38;11.20;99.90
3784;DHT22;1907;49.238;9.262;2022-10-29T02:13:06;11.20;99.90
3784;DHT22;1907;49.238;9.262;2022-10-29T02:15:38;11.20;99.90
3784;DHT22;1907;49.238;9.262;2022-10-29T02:18:07;11.30;99.90
3784;DHT22;1907;49.238;9.262;2022-10-29T02:20:33;11.30;99.90
3784;DHT22;1907;49.238;9.262;2022-10-29T02:22:59;11.30;99.90
3784;DHT22;1907;49.238;9.262;2022-10-29T02:25:25;11.30;99.90
3784;DHT22;1907;49.238;9.262;2022-10-29T02:27:51;11.30;99.90
3784;DHT22;1907;49.238;9.262;2022-10-29T02:30:16;11.20;99.90
3784;DHT22;1907;49.238;9.262;2022-10-29T02:32:42;11.10;99.90
3784;DHT22;1907;49.238;9.262;2022-10-29T02:35:08;11.10;99.90
3784;DHT22;1907;49.238;9.262;2022-10-29T02:37:34;11.10;99.90
3784;DHT22;1907;49.238;9.262;2022-10-29T02:39:59;11.10;99.90
3784;DHT22;1907;49.238;9.262;2022-10-29T02:42:25;11.10;99.90
3784;DHT22;1907;49.238;9.262;2022-10-29T02:44:51;11.20;99.90
3784;DHT22;1907;49.238;9.262;2022-10-29T02:47:16;11.20;99.90
3784;DHT22;1907;49.238;9.262;2022-10-29T02:49:42;11.20;99.90
3784;DHT22;1907;49.238;9.262;2022-10-29T02:52:08;11.20;99.90
3784;DHT22;1907;49.238;9.262;2022-10-29T02:54:33;11.20;99.90
3784;DHT22;1907;49.238;9.262;2022-10-29T02:56:59;11.20;99.90
3784;DHT22;1907;49.238;9.262;2022-10-29T02:59:25;11.10;99.90
3784;DHT22;1907;49.238;9.262;2022-10-29T03:01:51;11.10;99.90
3784;DHT22;1907;49.238;9.262;2022-10-29T03:04:16;11.00;99.90
3784;DHT22;1907;49.238;9.262;2022-10-29T03:06:42;11.00;99.90
3784;DHT22;1907;49.238;9.262;2022-10-29T03:09:08;10.90;99.90
3784;DHT22;1907;49.238;9.262;2022-10-29T03:11:33;10.80;99.90
3784;DHT22;1907;49.238;9.262;2022-10-29T03:13:59;10.80;99.90
3784;DHT22;1907;49.238;9.262;2022-10-29T03:16:24;10.70;99.90
3784;DHT22;1907;49.238;9.262;2022-10-29T03:18:50;10.70;99.90
3784;DHT22;1907;49.238;9.262;2022-10-29T03:21:16;10.70;99.90
3784;DHT22;1907;49.238;9.262;2022-10-29T03:23:41;10.60;99.90
3784;DHT22;1907;49.238;9.262;2022-10-29T03:26:08;10.60;99.90
3784;DHT22;1907;49.238;9.262;2022-10-29T03:28:35;10.70;99.90
3784;DHT22;1907;49.238;9.262;2022-10-29T03:31:00;10.70;99.90
3784;DHT22;1907;49.238;9.262;2022-10-29T03:33:26;10.70;99.90
3784;DHT22;1907;49.238;9.262;2022-10-29T03:35:59;10.70;99.90
3784;DHT22;1907;49.238;9.262;2022-10-29T03:38:26;10.70;99.90
3784;DHT22;1907;49.238;9.262;2022-10-29T03:40:52;10.60;99.90
3784;DHT22;1907;49.238;9.262;2022-10-29T03:43:18;10.60;99.90
3784;DHT22;1907;49.238;9.262;2022-10-29T03:45:52;10.60;99.90
3784;DHT22;1907;49.238;9.262;2022-10-29T03:48:18;10.50;99.90
3784;DHT22;1907;49.238;9.262;2022-10-29T03:50:44;10.50;99.90
3784;DHT22;1907;49.238;9.262;2022-10-29T03:53:10;10.40;99.90
3784;DHT22;1907;49.238;9.262;2022-10-29T03:55:36;10.40;99.90
3784;DHT22;1907;49.238;9.262;2022-10-29T03:58:01;10.40;99.90
3784;DHT22;1907;49.238;9.262;2022-10-29T04:00:27;10.40;99.90
3784;DHT22;1907;49.238;9.262;2022-10-29T04:02:52;10.40;99.90
3784;DHT22;1907;49.238;9.262;2022-10-29T04:05:18;10.40;99.90
3784;DHT22;1907;49.238;9.262;2022-10-29T04:07:44;10.50;99.90
3784;DHT22;1907;49.238;9.262;2022-10-29T04:10:09;10.50;99.90
3784;DHT22;1907;49.238;9.262;2022-10-29T04:12:35;10.50;99.90
3784;DHT22;1907;49.238;9.262;2022-10-29T04:15:00;10.50;99.90
3784;DHT22;1907;49.238;9.262;2022-10-29T04:17:26;10.60;99.90
3784;DHT22;1907;49.238;9.262;2022-10-29T04:19:51;10.50;99.90
3784;DHT22;1907;49.238;9.262;2022-10-29T04:22:17;10.50;99.90
3784;DHT22;1907;49.238;9.262;2022-10-29T04:24:42;10.40;99.90
3784;DHT22;1907;49.238;9.262;2022-10-29T04:27:08;10.40;99.90
3784;DHT22;1907;49.238;9.262;2022-10-29T04:29:33;10.30;99.90
3784;DHT22;1907;49.238;9.262;2022-10-29T04:31:59;10.30;99.90
3784;DHT22;1907;49.238;9.262;2022-10-29T04:34:25;10.30;99.90
3784;DHT22;1907;49.238;9.262;2022-10-29T04:36:51;10.30;99.90
3784;DHT22;1907;49.238;9.262;2022-10-29T04:39:17;10.30;99.90
3784;DHT22;1907;49.238;9.262;2022-10-29T04:41:42;10.30;99.90
3784;DHT22;1907;49.238;9.262;2022-10-29T04:44:08;10.30;99.90
3784;DHT22;1907;49.238;9.262;2022-10-29T04:46:33;10.20;99.90
3784;DHT22;1907;49.238;9.262;2022-10-29T04:48:59;10.20;99.90
3784;DHT22;1907;49.238;9.262;2022-10-29T04:51:25;10.10;99.90
3784;DHT22;1907;49.238;9.262;2022-10-29T04:53:51;10.10;99.90
3784;DHT22;1907;49.238;9.262;2022-10-29T04:56:17;10.10;99.90
3784;DHT22;1907;49.238;9.262;2022-10-29T04:58:42;10.20;99.90
3784;DHT22;1907;49.238;9.262;2022-10-29T05:01:08;10.20;99.90
3784;DHT22;1907;49.238;9.262;2022-10-29T05:03:34;10.20;99.90
3784;DHT22;1907;49.238;9.262;2022-10-29T05:06:04;10.30;99.90
3784;DHT22;1907;49.238;9.262;2022-10-29T05:08:30;10.20;99.90
3784;DHT22;1907;49.238;9.262;2022-10-29T05:10:56;10.20;99.90
3784;DHT22;1907;49.238;9.262;2022-10-29T05:13:21;10.20;99.90
3784;DHT22;1907;49.238;9.262;2022-10-29T05:15:51;10.20;99.90
3784;DHT22;1907;49.238;9.262;2022-10-29T05:18:16;10.20;99.90
3784;DHT22;1907;49.238;9.262;2022-10-29T05:20:42;10.20;99.90
3784;DHT22;1907;49.238;9.262;2022-10-29T05:23:09;10.20;99.90
3784;DHT22;1907;49.238;9.262;2022-10-29T05:25:37;10.10;99.90
3784;DHT22;1907;49.238;9.262;2022-10-29T05:30:29;10.10;99.90
3784;DHT22;1907;49.238;9.262;2022-10-29T05:32:55;10.10;99.90
3784;DHT22;1907;49.238;9.262;2022-10-29T05:35:21;10.20;99.90
3784;DHT22;1907;49.238;9.262;2022-10-29T05:37:51;10.20;99.90
3784;DHT22;1907;49.238;9.262;2022-10-29T05:40:17;10.20;99.90
3784;DHT22;1907;49.238;9.262;2022-10-29T05:42:43;10.20;99.90
3784;DHT22;1907;49.238;9.262;2022-10-29T05:45:09;10.20;99.90
3784;DHT22;1907;49.238;9.262;2022-10-29T05:47:34;10.20;99.90
3784;DHT22;1907;49.238;9.262;2022-10-29T05:50:00;10.20;99.90
3784;DHT22;1907;49.238;9.262;2022-10-29T05:52:25;10.20;99.90
3784;DHT22;1907;49.238;9.262;2022-10-29T05:54:51;10.30;99.90
3784;DHT22;1907;49.238;9.262;2022-10-29T05:57:16;10.30;99.90
3784;DHT22;1907;49.238;9.262;2022-10-29T05:59:42;10.40;99.90
3784;DHT22;1907;49.238;9.262;2022-10-29T06:02:08;10.40;99.90
3784;DHT22;1907;49.238;9.262;2022-10-29T06:04:34;10.50;99.90
3784;DHT22;1907;49.238;9.262;2022-10-29T06:07:00;10.50;99.90
3784;DHT22;1907;49.238;9.262;2022-10-29T06:09:26;10.50;99.90
3784;DHT22;1907;49.238;9.262;2022-10-29T06:11:53;10.50;99.90
3784;DHT22;1907;49.238;9.262;2022-10-29T06:14:18;10.50;99.90
3784;DHT22;1907;49.238;9.262;2022-10-29T06:16:44;10.50;99.90
3784;DHT22;1907;49.238;9.262;2022-10-29T06:19:10;10.50;99.90
3784;DHT22;1907;49.238;9.262;2022-10-29T06:21:35;10.50;99.90
3784;DHT22;1907;49.238;9.262;2022-10-29T06:24:01;10.50;99.90
3784;DHT22;1907;49.238;9.262;2022-10-29T06:26:27;10.60;99.90
3784;DHT22;1907;49.238;9.262;2022-10-29T06:28:52;10.60;99.90
3784;DHT22;1907;49.238;9.262;2022-10-29T06:31:18;10.60;99.90
3784;DHT22;1907;49.238;9.262;2022-10-29T06:33:43;10.60;99.90
3784;DHT22;1907;49.238;9.262;2022-10-29T06:36:09;10.60;99.90
3784;DHT22;1907;49.238;9.262;2022-10-29T06:38:35;10.70;99.90
3784;DHT22;1907;49.238;9.262;2022-10-29T06:41:00;10.70;99.90
3784;DHT22;1907;49.238;9.262;2022-10-29T06:43:26;10.80;99.90
3784;DHT22;1907;49.238;9.262;2022-10-29T06:45:51;10.80;99.90
3784;DHT22;1907;49.238;9.262;2022-10-29T06:48:17;10.90;99.90
3784;DHT22;1907;49.238;9.262;2022-10-29T06:50:43;10.90;99.90
3784;DHT22;1907;49.238;9.262;2022-10-29T06:53:12;11.00;99.90
3784;DHT22;1907;49.238;9.262;2022-10-29T06:55:37;11.10;99.90
3784;DHT22;1907;49.238;9.262;2022-10-29T06:58:11;11.20;99.90
3784;DHT22;1907;49.238;9.262;2022-10-29T07:00:37;11.40;99.90
3784;DHT22;1907;49.238;9.262;2022-10-29T07:03:03;11.60;99.90
3784;DHT22;1907;49.238;9.262;2022-10-29T07:05:32;12.00;99.90
3784;DHT22;1907;49.238;9.262;2022-10-29T07:07:59;12.40;99.90
3784;DHT22;1907;49.238;9.262;2022-10-29T07:10:28;12.70;99.90
3784;DHT22;1907;49.238;9.262;2022-10-29T07:12:54;13.20;99.90
3784;DHT22;1907;49.238;9.262;2022-10-29T07:15:19;13.40;99.90
3784;DHT22;1907;49.238;9.262;2022-10-29T07:17:58;13.60;99.90
3784;DHT22;1907;49.238;9.262;2022-10-29T07:20:25;13.70;99.90
3784;DHT22;1907;49.238;9.262;2022-10-29T07:22:51;13.70;99.90
3784;DHT22;1907;49.238;9.262;2022-10-29T07:25:17;13.50;99.90
3784;DHT22;1907;49.238;9.262;2022-10-29T07:27:42;13.30;99.90
3784;DHT22;1907;49.238;9.262;2022-10-29T07:30:08;13.20;99.90
3784;DHT22;1907;49.238;9.262;2022-10-29T07:32:34;13.10;99.90
3784;DHT22;1907;49.238;9.262;2022-10-29T07:35:00;13.30;99.90
3784;DHT22;1907;49.238;9.262;2022-10-29T07:37:26;13.40;99.90
3784;DHT22;1907;49.238;9.262;2022-10-29T07:39:51;13.50;99.90
3784;DHT22;1907;49.238;9.262;2022-10-29T07:42:17;13.80;99.90
3784;DHT22;1907;49.238;9.262;2022-10-29T07:44:43;14.00;99.90
3784;DHT22;1907;49.238;9.262;2022-10-29T07:47:08;14.10;99.90
3784;DHT22;1907;49.238;9.262;2022-10-29T07:49:34;13.90;99.90
3784;DHT22;1907;49.238;9.262;2022-10-29T07:52:00;13.80;99.90
3784;DHT22;1907;49.238;9.262;2022-10-29T07:54:25;13.70;99.90
3784;DHT22;1907;49.238;9.262;2022-10-29T07:56:52;13.60;99.90
3784;DHT22;1907;49.238;9.262;2022-10-29T07:59:18;13.60;99.90
3784;DHT22;1907;49.238;9.262;2022-10-29T08:01:44;13.60;99.90
3784;DHT22;1907;49.238;9.262;2022-10-29T08:04:09;13.50;99.90
3784;DHT22;1907;49.238;9.262;2022-10-29T08:06:35;13.50;99.90
3784;DHT22;1907;49.238;9.262;2022-10-29T08:09:01;13.60;99.90
3784;DHT22;1907;49.238;9.262;2022-10-29T08:11:27;13.70;99.90
3784;DHT22;1907;49.238;9.262;2022-10-29T08:13:52;14.00;99.90
3784;DHT22;1907;49.238;9.262;2022-10-29T08:16:18;14.30;99.90
3784;DHT22;1907;49.238;9.262;2022-10-29T08:18:43;14.40;99.90
3784;DHT22;1907;49.238;9.262;2022-10-29T08:21:10;14.40;99.90
3784;DHT22;1907;49.238;9.262;2022-10-29T08:23:36;14.60;99.90
3784;DHT22;1907;49.238;9.262;2022-10-29T08:26:01;14.80;99.90
3784;DHT22;1907;49.238;9.262;2022-10-29T08:28:27;14.90;99.90
3784;DHT22;1907;49.238;9.262;2022-10-29T08:30:52;14.90;99.90
3784;DHT22;1907;49.238;9.262;2022-10-29T08:33:18;15.10;99.90
3784;DHT22;1907;49.238;9.262;2022-10-29T08:35:45;15.10;99.90
3784;DHT22;1907;49.238;9.262;2022-10-29T08:38:12;15.20;99.90
3784;DHT22;1907;49.238;9.262;2022-10-29T08:44:10;15.60;99.90
3784;DHT22;1907;49.238;9.262;2022-10-29T08:46:51;15.80;99.90
3784;DHT22;1907;49.238;9.262;2022-10-29T08:49:34;15.90;99.90
3784;DHT22;1907;49.238;9.262;2022-10-29T08:52:12;16.00;99.90
3784;DHT22;1907;49.238;9.262;2022-10-29T08:54:43;16.10;99.90
3784;DHT22;1907;49.238;9.262;2022-10-29T08:57:17;16.20;99.90
3784;DHT22;1907;49.238;9.262;2022-10-29T09:00:05;16.30;99.90
3784;DHT22;1907;49.238;9.262;2022-10-29T09:02:31;16.50;99.90
3784;DHT22;1907;49.238;9.262;2022-10-29T09:04:57;16.60;99.90
3784;DHT22;1907;49.238;9.262;2022-10-29T09:18:19;17.10;99.90
3784;DHT22;1907;49.238;9.262;2022-10-29T09:20:54;17.70;99.90
3784;DHT22;1907;49.238;9.262;2022-10-29T09:26:12;18.80;99.90
3784;DHT22;1907;49.238;9.262;2022-10-29T09:34:03;20.00;99.90
3784;DHT22;1907;49.238;9.262;2022-10-29T09:36:30;19.80;99.90
3784;DHT22;1907;49.238;9.262;2022-10-29T09:38:59;19.80;99.90
3784;DHT22;1907;49.238;9.262;2022-10-29T09:41:32;20.00;99.90
3784;DHT22;1907;49.238;9.262;2022-10-29T09:44:19;20.20;99.90
3784;DHT22;1907;49.238;9.262;2022-10-29T09:49:40;20.20;99.90
3784;DHT22;1907;49.238;9.262;2022-10-29T09:52:22;20.40;99.90
3784;DHT22;1907;49.238;9.262;2022-10-29T09:54:50;20.50;99.90
3784;DHT22;1907;49.238;9.262;2022-10-29T09:57:22;21.00;99.90
3784;DHT22;1907;49.238;9.262;2022-10-29T10:00:05;21.30;99.90
3784;DHT22;1907;49.238;9.262;2022-10-29T10:05:32;21.60;99.90
3784;DHT22;1907;49.238;9.262;2022-10-29T10:08:10;21.40;99.90
3784;DHT22;1907;49.238;9.262;2022-10-29T10:11:07;21.30;99.90
3784;DHT22;1907;49.238;9.262;2022-10-29T10:13:58;21.50;99.90
3784;DHT22;1907;49.238;9.262;2022-10-29T10:16:27;21.70;99.90
3784;DHT22;1907;49.238;9.262;2022-10-29T10:18:53;22.00;99.90
3784;DHT22;1907;49.238;9.262;2022-10-29T10:21:26;21.90;99.90
3784;DHT22;1907;49.238;9.262;2022-10-29T10:23:54;21.80;99.90
3784;DHT22;1907;49.238;9.262;2022-10-29T10:29:19;22.00;99.90
3784;DHT22;1907;49.238;9.262;2022-10-29T10:31:49;22.10;99.90
3784;DHT22;1907;49.238;9.262;2022-10-29T10:34:20;22.00;99.90
3784;DHT22;1907;49.238;9.262;2022-10-29T10:37:36;21.60;99.90
3784;DHT22;1907;49.238;9.262;2022-10-29T10:44:50;21.80;99.90
3784;DHT22;1907;49.238;9.262;2022-10-29T10:47:19;22.40;99.90
3784;DHT22;1907;49.238;9.262;2022-10-29T10:49:46;23.40;99.90
3784;DHT22;1907;49.238;9.262;2022-10-29T10:52:16;23.90;99.90
3784;DHT22;1907;49.238;9.262;2022-10-29T10:55:08;24.50;99.90
3784;DHT22;1907;49.238;9.262;2022-10-29T10:57:45;25.10;99.90
3784;DHT22;1907;49.238;9.262;2022-10-29T11:00:21;25.60;99.90
3784;DHT22;1907;49.238;9.262;2022-10-29T11:02:52;25.70;99.90
3784;DHT22;1907;49.238;9.262;2022-10-29T11:05:28;25.80;99.90
3784;DHT22;1907;49.238;9.262;2022-10-29T11:10:26;25.90;99.90
3784;DHT22;1907;49.238;9.262;2022-10-29T11:12:54;26.00;99.90
3784;DHT22;1907;49.238;9.262;2022-10-29T11:18:01;26.30;99.90
3784;DHT22;1907;49.238;9.262;2022-10-29T11:20:32;26.30;99.90
3784;DHT22;1907;49.238;9.262;2022-10-29T11:23:32;26.50;99.90
3784;DHT22;1907;49.238;9.262;2022-10-29T11:26:10;26.60;99.90
3784;DHT22;1907;49.238;9.262;2022-10-29T11:28:48;26.50;99.90
3784;DHT22;1907;49.238;9.262;2022-10-29T11:40:22;25.90;99.90
3784;DHT22;1907;49.238;9.262;2022-10-29T11:42:48;25.70;99.90
3784;DHT22;1907;49.238;9.262;2022-10-29T11:45:39;25.60;99.90
3784;DHT22;1907;49.238;9.262;2022-10-29T11:51:42;25.30;99.90
3784;DHT22;1907;49.238;9.262;2022-10-29T11:57:20;24.60;99.90
3784;DHT22;1907;49.238;9.262;2022-10-29T12:05:41;23.80;99.90
3784;DHT22;1907;49.238;9.262;2022-10-29T12:08:36;23.60;99.90
3784;DHT22;1907;49.238;9.262;2022-10-29T12:11:26;23.50;99.90
3784;DHT22;1907;49.238;9.262;2022-10-29T12:14:04;23.40;99.90
3784;DHT22;1907;49.238;9.262;2022-10-29T12:22:31;23.70;99.90
3784;DHT22;1907;49.238;9.262;2022-10-29T12:30:30;23.90;99.90
3784;DHT22;1907;49.238;9.262;2022-10-29T12:33:20;24.00;99.90
3784;DHT22;1907;49.238;9.262;2022-10-29T12:38:47;24.30;99.90
3784;DHT22;1907;49.238;9.262;2022-10-29T12:41:26;24.30;99.90
3784;DHT22;1907;49.238;9.262;2022-10-29T12:44:06;24.20;99.90
3784;DHT22;1907;49.238;9.262;2022-10-29T12:46:58;24.30;99.90
3784;DHT22;1907;49.238;9.262;2022-10-29T12:54:56;24.60;99.90
3784;DHT22;1907;49.238;9.262;2022-10-29T12:57:34;24.70;99.90
3784;DHT22;1907;49.238;9.262;2022-10-29T13:02:51;24.50;99.90
3784;DHT22;1907;49.238;9.262;2022-10-29T13:16:00;23.80;99.90
3784;DHT22;1907;49.238;9.262;2022-10-29T13:21:04;23.50;99.90
3784;DHT22;1907;49.238;9.262;2022-10-29T13:23:32;23.30;99.90
3784;DHT22;1907;49.238;9.262;2022-10-29T13:26:01;23.20;99.90
3784;DHT22;1907;49.238;9.262;2022-10-29T13:44:13;23.30;99.90
3784;DHT22;1907;49.238;9.262;2022-10-29T13:46:53;23.30;99.90
3784;DHT22;1907;49.238;9.262;2022-10-29T13:49:33;23.20;99.90
3784;DHT22;1907;49.238;9.262;2022-10-29T13:54:45;23.10;99.90
3784;DHT22;1907;49.238;9.262;2022-10-29T13:59:53;23.00;99.90
3784;DHT22;1907;49.238;9.262;2022-10-29T14:02:22;22.80;99.90
3784;DHT22;1907;49.238;9.262;2022-10-29T14:04:54;22.80;99.90
3784;DHT22;1907;49.238;9.262;2022-10-29T14:07:27;22.70;99.90
3784;DHT22;1907;49.238;9.262;2022-10-29T14:09:56;22.60;99.90
3784;DHT22;1907;49.238;9.262;2022-10-29T14:12:28;22.50;99.90
3784;DHT22;1907;49.238;9.262;2022-10-29T14:15:02;22.40;99.90
3784;DHT22;1907;49.238;9.262;2022-10-29T14:17:28;22.30;99.90
3784;DHT22;1907;49.238;9.262;2022-10-29T14:19:53;22.20;99.90
3784;DHT22;1907;49.238;9.262;2022-10-29T14:22:36;22.10;99.90
3784;DHT22;1907;49.238;9.262;2022-10-29T14:25:30;22.10;99.90
3784;DHT22;1907;49.238;9.262;2022-10-29T14:30:47;22.10;99.90
3784;DHT22;1907;49.238;9.262;2022-10-29T14:33:19;22.10;99.90
3784;DHT22;1907;49.238;9.262;2022-10-29T14:35:46;22.00;99.90
3784;DHT22;1907;49.238;9.262;2022-10-29T14:38:12;22.00;99.90
3784;DHT22;1907;49.238;9.262;2022-10-29T14:40:39;22.00;99.90
3784;DHT22;1907;49.238;9.262;2022-10-29T14:43:04;22.00;99.90
3784;DHT22;1907;49.238;9.262;2022-10-29T14:45:31;21.90;99.90
3784;DHT22;1907;49.238;9.262;2022-10-29T14:47:59;21.90;99.90
3784;DHT22;1907;49.238;9.262;2022-10-29T14:50:27;21.90;99.90
3784;DHT22;1907;49.238;9.262;2022-10-29T14:52:56;21.80;99.90
3784;DHT22;1907;49.238;9.262;2022-10-29T14:55:33;21.70;99.90
3784;DHT22;1907;49.238;9.262;2022-10-29T14:58:14;21.60;99.90
3784;DHT22;1907;49.238;9.262;2022-10-29T15:00:59;21.40;99.90
3784;DHT22;1907;49.238;9.262;2022-10-29T15:03:29;21.40;99.90
3784;DHT22;1907;49.238;9.262;2022-10-29T15:06:19;21.20;99.90
3784;DHT22;1907;49.238;9.262;2022-10-29T15:09:09;21.10;99.90
3784;DHT22;1907;49.238;9.262;2022-10-29T15:11:41;21.00;99.90
3784;DHT22;1907;49.238;9.262;2022-10-29T15:14:35;20.90;99.90
3784;DHT22;1907;49.238;9.262;2022-10-29T15:17:09;20.80;99.90
3784;DHT22;1907;49.238;9.262;2022-10-29T15:19:36;20.60;99.90
3784;DHT22;1907;49.238;9.262;2022-10-29T15:22:10;20.50;99.90
3784;DHT22;1907;49.238;9.262;2022-10-29T15:24:45;20.40;99.90
3784;DHT22;1907;49.238;9.262;2022-10-29T15:27:13;20.20;99.90
3784;DHT22;1907;49.238;9.262;2022-10-29T15:29:39;20.10;99.90
3784;DHT22;1907;49.238;9.262;2022-10-29T15:32:14;20.00;99.90
3784;DHT22;1907;49.238;9.262;2022-10-29T15:34:46;19.90;99.90
3784;DHT22;1907;49.238;9.262;2022-10-29T15:42:34;19.60;99.90
3784;DHT22;1907;49.238;9.262;2022-10-29T15:47:40;19.40;99.90
3784;DHT22;1907;49.238;9.262;2022-10-29T15:50:10;19.30;99.90
3784;DHT22;1907;49.238;9.262;2022-10-29T15:53:03;19.20;99.90
3784;DHT22;1907;49.238;9.262;2022-10-29T15:55:34;19.10;99.90
3784;DHT22;1907;49.238;9.262;2022-10-29T16:00:35;18.80;99.90
3784;DHT22;1907;49.238;9.262;2022-10-29T16:03:15;18.70;99.90
3784;DHT22;1907;49.238;9.262;2022-10-29T16:05:43;18.60;99.90
3784;DHT22;1907;49.238;9.262;2022-10-29T16:08:25;18.50;99.90
3784;DHT22;1907;49.238;9.262;2022-10-29T16:10:52;18.40;99.90
3784;DHT22;1907;49.238;9.262;2022-10-29T16:13:18;18.30;99.90
3784;DHT22;1907;49.238;9.262;2022-10-29T16:15:45;18.20;99.90
3784;DHT22;1907;49.238;9.262;2022-10-29T16:18:10;18.20;99.90
3784;DHT22;1907;49.238;9.262;2022-10-29T16:20:36;18.10;99.90
3784;DHT22;1907;49.238;9.262;2022-10-29T16:23:02;18.00;99.90
3784;DHT22;1907;49.238;9.262;2022-10-29T16:25:28;17.90;99.90
3784;DHT22;1907;49.238;9.262;2022-10-29T16:27:54;17.80;99.90
3784;DHT22;1907;49.238;9.262;2022-10-29T16:30:21;17.80;99.90
3784;DHT22;1907;49.238;9.262;2022-10-29T16:32:48;17.70;99.90
3784;DHT22;1907;49.238;9.262;2022-10-29T16:37:46;17.60;99.90
3784;DHT22;1907;49.238;9.262;2022-10-29T16:40:12;17.60;99.90
3784;DHT22;1907;49.238;9.262;2022-10-29T16:42:39;17.60;99.90
3784;DHT22;1907;49.238;9.262;2022-10-29T16:45:06;17.50;99.90
3784;DHT22;1907;49.238;9.262;2022-10-29T16:47:34;17.50;99.90
3784;DHT22;1907;49.238;9.262;2022-10-29T16:50:00;17.40;99.90
3784;DHT22;1907;49.238;9.262;2022-10-29T16:52:25;17.40;99.90
3784;DHT22;1907;49.238;9.262;2022-10-29T16:54:51;17.30;99.90
3784;DHT22;1907;49.238;9.262;2022-10-29T16:57:17;17.30;99.90
3784;DHT22;1907;49.238;9.262;2022-10-29T16:59:42;17.20;99.90
3784;DHT22;1907;49.238;9.262;2022-10-29T17:02:11;17.20;99.90
3784;DHT22;1907;49.238;9.262;2022-10-29T17:04:37;17.20;99.90
3784;DHT22;1907;49.238;9.262;2022-10-29T17:07:02;17.20;99.90
3784;DHT22;1907;49.238;9.262;2022-10-29T17:09:28;17.20;99.90
3784;DHT22;1907;49.238;9.262;2022-10-29T17:11:55;17.20;99.90
3784;DHT22;1907;49.238;9.262;2022-10-29T17:14:22;17.30;99.90
3784;DHT22;1907;49.238;9.262;2022-10-29T17:16:48;17.30;99.90
3784;DHT22;1907;49.238;9.262;2022-10-29T17:19:13;17.30;99.90
3784;DHT22;1907;49.238;9.262;2022-10-29T17:21:39;17.30;99.90
3784;DHT22;1907;49.238;9.262;2022-10-29T17:24:04;17.30;99.90
3784;DHT22;1907;49.238;9.262;2022-10-29T17:26:30;17.30;99.90
3784;DHT22;1907;49.238;9.262;2022-10-29T17:28:56;17.20;99.90
3784;DHT22;1907;49.238;9.262;2022-10-29T17:31:21;17.10;99.90
3784;DHT22;1907;49.238;9.262;2022-10-29T17:33:47;17.00;99.90
3784;DHT22;1907;49.238;9.262;2022-10-29T17:36:14;17.00;99.90
3784;DHT22;1907;49.238;9.262;2022-10-29T17:38:40;16.90;99.90
3784;DHT22;1907;49.238;9.262;2022-10-29T17:41:06;16.90;99.90
3784;DHT22;1907;49.238;9.262;2022-10-29T17:43:31;16.90;99.90
3784;DHT22;1907;49.238;9.262;2022-10-29T17:45:57;16.90;99.90
3784;DHT22;1907;49.238;9.262;2022-10-29T17:48:23;16.90;99.90
3784;DHT22;1907;49.238;9.262;2022-10-29T17:50:53;16.90;99.90
3784;DHT22;1907;49.238;9.262;2022-10-29T17:53:20;16.90;99.90
3784;DHT22;1907;49.238;9.262;2022-10-29T17:55:46;16.90;99.90
3784;DHT22;1907;49.238;9.262;2022-10-29T17:58:11;16.90;99.90
3784;DHT22;1907;49.238;9.262;2022-10-29T18:00:37;16.80;99.90
3784;DHT22;1907;49.238;9.262;2022-10-29T18:03:03;16.80;99.90
3784;DHT22;1907;49.238;9.262;2022-10-29T18:05:29;16.80;99.90
3784;DHT22;1907;49.238;9.262;2022-10-29T18:07:55;16.80;99.90
3784;DHT22;1907;49.238;9.262;2022-10-29T18:10:21;16.70;99.90
3784;DHT22;1907;49.238;9.262;2022-10-29T18:12:46;16.70;99.90
3784;DHT22;1907;49.238;9.262;2022-10-29T18:15:12;16.60;99.90
3784;DHT22;1907;49.238;9.262;2022-10-29T18:17:37;16.60;99.90
3784;DHT22;1907;49.238;9.262;2022-10-29T18:20:05;16.50;99.90
3784;DHT22;1907;49.238;9.262;2022-10-29T18:22:31;16.50;99.90
3784;DHT22;1907;49.238;9.262;2022-10-29T18:24:56;16.40;99.90
3784;DHT22;1907;49.238;9.262;2022-10-29T18:27:22;16.30;99.90
3784;DHT22;1907;49.238;9.262;2022-10-29T18:29:48;16.30;99.90
3784;DHT22;1907;49.238;9.262;2022-10-29T18:32:13;16.20;99.90
3784;DHT22;1907;49.238;9.262;2022-10-29T18:34:39;16.20;99.90
3784;DHT22;1907;49.238;9.262;2022-10-29T18:37:04;16.20;99.90
3784;DHT22;1907;49.238;9.262;2022-10-29T18:39:31;16.20;99.90
3784;DHT22;1907;49.238;9.262;2022-10-29T18:41:58;16.20;99.90
3784;DHT22;1907;49.238;9.262;2022-10-29T18:44:24;16.10;99.90
3784;DHT22;1907;49.238;9.262;2022-10-29T18:46:50;16.00;99.90
3784;DHT22;1907;49.238;9.262;2022-10-29T18:49:15;16.00;99.90
3784;DHT22;1907;49.238;9.262;2022-10-29T18:51:41;15.80;99.90
3784;DHT22;1907;49.238;9.262;2022-10-29T18:54:09;15.70;99.90
3784;DHT22;1907;49.238;9.262;2022-10-29T18:56:35;15.70;99.90
3784;DHT22;1907;49.238;9.262;2022-10-29T18:59:03;15.60;99.90
3784;DHT22;1907;49.238;9.262;2022-10-29T19:01:30;15.50;99.90